AKL weather

Auckland International Airport
Auckland, Auckland Region, New Zealand

Public forecast

Using degrees Celsius for public forecast. Weather courtesy of forecast.io.

Current aviation weather report (METAR) for Auckland International Airport

Retrieved 2019/11/12 20:30 UTC (6 minutes ago):

NZAA 122030Z AUTO 24008KT 220V280 9999 NCD 16/07 Q1014 NOSIG

Aviation forecast (TAF) for Auckland International Airport

Retrieved 2019/11/12 18:18 UTC (2 hours ago):

TAF NZAA 121717Z 1218/1318 25008KT 9999 FEW030 BKN050 BECMG 1222/1300 31012KT BECMG 1306/1308 01005KT BECMG 1312/1314 02015G25KT